Flight Track Log - Related Links

Times and Time Zones

All times are in EDT time to prevent confusion due to time zone crossing. See the JUS327 flight status page for this flight to view local times or setup timezone preferences in your user account.

Time Position Orientation Groundspeed Altitude Reporting Facility
EDT Latitude Longitude Course Direction KTS MPH feet Rate Location/Type
Thu 12:19:20 PM 40.6667 -74.1833 207° Southwest 173 199 1,000  Level New York TRACON
Thu 12:20:26 PM 40.6167 -74.2167 207° Southwest 220 253 2,800 1,714 Climbing New York TRACON
Thu 12:21:26 PM 40.6167 -74.3000 270° West 257 296 4,600 2,100 Climbing New York TRACON
Thu 12:22:26 PM 40.6000 -74.4000 258° West 259 298 7,000 2,350 Climbing New York TRACON
Thu 12:23:26 PM 40.6333 -74.4833 298° West 271 312 9,300 1,950 Climbing New York TRACON
Thu 12:24:26 PM 40.6667 -74.5833 294° West 281 323 10,900 1,245 Climbing New York TRACON
Thu 12:25:12 PM 40.6833 -74.6489 289° West 311 358 11,500 1,358 Climbing New York Center
Thu 12:26:12 PM 40.6772 -74.7661 266° West 323 372 13,300 1,780 Climbing New York Center
Thu 12:27:10 PM 40.6878 -74.8872 277° West 333 383 15,000 1,513 Climbing New York Center
Thu 12:28:11 PM 40.6833 -75.0128 267° West 338 389 16,300 1,438 Climbing New York Center
Thu 12:29:11 PM 40.6828 -75.1414 270° West 345 397 17,900 1,289 Climbing New York Center
Thu 12:30:12 PM 40.6436 -75.2400 242° Southwest 339 390 18,900 1,109 Climbing New York Center
Thu 12:31:10 PM 40.5889 -75.3622 240° Southwest 345 397 20,100 1,261 Climbing New York Center
Thu 12:32:11 PM 40.5306 -75.4703 235° Southwest 357 411 21,400 1,131 Climbing New York Center
Thu 12:33:12 PM 40.4739 -75.5864 237° Southwest 370 426 22,400 1,109 Climbing New York Center
Thu 12:34:10 PM 40.4167 -75.7078 238° Southwest 385 443 23,600 1,109 Climbing New York Center
Thu 12:35:11 PM 40.3575 -75.8261 237° Southwest 391 450 24,600 1,131 Climbing New York Center
Thu 12:36:12 PM 40.3000 -75.9472 238° Southwest 402 463 25,900 1,008 Climbing New York Center
Thu 12:37:10 PM 40.2386 -76.0650 236° Southwest 397 457 26,600 814 Climbing New York Center
Thu 12:38:10 PM 40.1814 -76.1747 236° Southwest 397 457 27,500 893 Climbing New York Center
Thu 12:39:11 PM 40.1108 -76.3078 235° Southwest 402 463 28,400 843 Climbing New York Center
Thu 12:40:11 PM 40.0528 -76.4306 238° Southwest 402 463 29,200 843 Climbing New York Center
Thu 12:41:12 PM 39.9986 -76.5564 241° Southwest 407 468 30,100 857 Climbing New York Center
Thu 12:42:10 PM 39.9422 -76.6844 240° Southwest 402 463 30,900 755 Climbing New York Center
Thu 12:43:35 PM 39.8550 -76.8592 237° Southwest 395 455 31,900 455 Climbing Washington Center
Thu 12:44:35 PM 39.7953 -76.9822 238° Southwest 395 455 32,000 50 Climbing Washington Center
Thu 12:45:35 PM 39.7333 -77.1133 238° Southwest 419 482 32,000  Level Washington Center
Thu 12:46:35 PM 39.6731 -77.2494 240° Southwest 430 495 32,000  Level Washington Center
Thu 12:47:35 PM 39.6086 -77.3800 237° Southwest 430 495 32,000  Level Washington Center
Thu 12:48:35 PM 39.5464 -77.5103 238° Southwest 430 495 32,000  Level Washington Center
Thu 12:49:35 PM 39.4836 -77.6431 239° Southwest 430 495 32,000  Level Washington Center
Thu 12:50:35 PM 39.4211 -77.7731 238° Southwest 430 495 32,000  Level Washington Center
Thu 12:51:35 PM 39.3558 -77.9081 238° Southwest 430 495 32,000  Level Washington Center
Thu 12:52:35 PM 39.2969 -78.0403 240° Southwest 430 495 32,000  Level Washington Center
Thu 12:53:35 PM 39.2419 -78.1803 243° Southwest 435 501 32,000  Level Washington Center
Thu 12:54:35 PM 39.1953 -78.3206 247° West 435 501 32,000 -50 Level Washington Center
Thu 12:55:35 PM 39.1503 -78.4608 248° West 430 495 31,900  Descending Washington Center
Thu 12:56:35 PM 39.1136 -78.5931 250° West 437 503 32,000 50 Climbing Washington Center
Thu 12:57:35 PM 39.0603 -78.7272 243° Southwest 437 503 32,000  Level Washington Center
Thu 12:58:35 PM 39.0006 -78.8556 239° Southwest 424 488 32,000  Level Washington Center
Thu 12:59:35 PM 38.9367 -78.9808 237° Southwest 424 488 32,000  Level Washington Center
Thu 01:00:35 PM 38.8825 -79.1172 243° Southwest 424 488 32,000  Level Washington Center
Thu 01:01:35 PM 38.8347 -79.2508 245° Southwest 419 482 32,000  Level Washington Center
Thu 01:02:35 PM 38.8053 -79.3986 256° West 425 489 32,000  Level Washington Center
Thu 01:03:35 PM 38.7789 -79.5703 259° West 437 503 32,000  Level Washington Center
Thu 01:04:35 PM 38.7486 -79.7203 256° West 442 509 32,000  Level Washington Center
Thu 01:05:35 PM 38.7125 -79.8647 252° West 440 506 32,000  Level Washington Center
Thu 01:06:35 PM 38.6664 -79.9842 244° Southwest 432 497 32,000  Level Washington Center
Thu 01:07:35 PM 38.6156 -80.1194 244° Southwest 432 497 32,000  Level Washington Center
Thu 01:09:44 PM 38.5739 -80.4306 260° West 424 488 32,000  Level Indianapolis Center
Thu 01:10:45 PM 38.5442 -80.5939 257° West 425 489 32,000  Level Indianapolis Center
Thu 01:11:47 PM 38.5203 -80.7414 258° West 426 490 32,000  Level Indianapolis Center
Thu 01:12:48 PM 38.4981 -80.8889 259° West 424 488 32,000  Level Indianapolis Center
Thu 01:13:50 PM 38.4733 -81.0364 258° West 421 484 32,000  Level Indianapolis Center
Thu 01:14:51 PM 38.4483 -81.1847 258° West 425 489 32,000  Level Indianapolis Center
Thu 01:15:53 PM 38.4236 -81.3333 258° West 424 488 32,000  Level Indianapolis Center
Thu 01:16:54 PM 38.3947 -81.4822 256° West 426 490 32,000  Level Indianapolis Center
Thu 01:17:56 PM 38.3689 -81.6322 258° West 429 494 32,000  Level Indianapolis Center
Thu 01:18:57 PM 38.3461 -81.7800 259° West 422 486 32,000  Level Indianapolis Center
Thu 01:19:59 PM 38.3094 -81.9239 252° West 426 490 32,000  Level Indianapolis Center
Thu 01:21:00 PM 38.2636 -82.0647 248° West 429 494 32,000  Level Indianapolis Center
Thu 01:22:01 PM 38.2167 -82.2372 251° West 430 495 32,000  Level Indianapolis Center
Thu 01:23:03 PM 38.1783 -82.3819 251° West 430 495 32,000  Level Indianapolis Center
Thu 01:24:04 PM 38.1381 -82.5164 249° West 433 498 32,000  Level Indianapolis Center
Thu 01:25:06 PM 38.0975 -82.6606 250° West 432 497 32,000  Level Indianapolis Center
Thu 01:26:07 PM 38.0572 -82.8047 251° West 434 499 32,000  Level Indianapolis Center
Thu 01:27:09 PM 38.0072 -82.9742 250° West 438 504 32,000  Level Indianapolis Center
Thu 01:28:10 PM 37.9667 -83.1189 250° West 437 503 32,000  Level Indianapolis Center
Thu 01:29:12 PM 37.9239 -83.2628 249° West 437 503 32,000  Level Indianapolis Center
Thu 01:30:13 PM 37.8814 -83.4081 250° West 441 507 32,000  Level Indianapolis Center
Thu 01:31:14 PM 37.8383 -83.5511 249° West 438 504 32,000  Level Indianapolis Center
Thu 01:32:16 PM 37.7956 -83.6947 249° West 436 502 32,000  Level Indianapolis Center
Thu 01:33:17 PM 37.7517 -83.8378 249° West 437 503 32,000  Level Indianapolis Center
Thu 01:34:19 PM 37.6994 -84.0014 248° West 434 499 32,000 -49 Level Indianapolis Center
Thu 01:35:20 PM 37.6556 -84.1453 249° West 436 502 31,900  Descending Indianapolis Center
Thu 01:36:22 PM 37.6172 -84.2894 251° West 435 501 32,000  Climbing Indianapolis Center
Thu 01:37:23 PM 37.5733 -84.4261 248° West 424 488 31,900  Descending Indianapolis Center
Thu 01:38:25 PM 37.5303 -84.5600 248° West 415 478 32,000 49 Climbing Indianapolis Center
Thu 01:39:26 PM 37.4897 -84.6928 249° West 408 470 32,000  Level Indianapolis Center
Thu 01:40:28 PM 37.4472 -84.8250 248° West 407 468 32,000  Level Indianapolis Center
Thu 01:41:29 PM 37.3983 -84.9803 248° West 409 471 32,000  Level Indianapolis Center
Thu 01:42:30 PM 37.3544 -85.1131 247° West 412 474 32,000  Level Indianapolis Center
Thu 01:43:32 PM 37.3139 -85.2467 249° West 411 473 32,000  Level Indianapolis Center
Thu 01:44:33 PM 37.2708 -85.3817 248° West 416 479 32,000  Level Indianapolis Center
Thu 01:45:35 PM 37.2286 -85.5133 248° West 418 481 32,000  Level Indianapolis Center
Thu 01:46:36 PM 37.1878 -85.6503 250° West 419 482 32,000  Level Indianapolis Center
Thu 01:46:53 PM 37.1739 -85.7050 252° West 421 484 32,000  Level Memphis Center
Thu 01:47:53 PM 37.1286 -85.8350 246° West 416 479 32,000  Level Memphis Center
Thu 01:48:53 PM 37.0856 -85.9703 248° West 421 484 32,000  Level Memphis Center
Thu 01:49:53 PM 37.0422 -86.1025 248° West 415 478 32,000  Level Memphis Center
Thu 01:50:53 PM 36.9967 -86.2347 247° West 420 483 32,000  Level Memphis Center
Thu 01:51:53 PM 36.9553 -86.3667 249° West 420 483 32,000  Level Memphis Center
Thu 01:52:53 PM 36.9136 -86.5011 249° West 420 483 32,000  Level Memphis Center
Thu 01:53:53 PM 36.8569 -86.6231 240° Southwest 420 483 32,000  Level Memphis Center
Thu 01:54:53 PM 36.7958 -86.7453 238° Southwest 420 483 32,000  Level Memphis Center
Thu 01:55:53 PM 36.7411 -86.8719 242° Southwest 420 483 32,000  Level Memphis Center
Thu 01:56:53 PM 36.6883 -86.9983 243° Southwest 414 476 32,000  Level Memphis Center
Thu 01:57:53 PM 36.6414 -87.1089 242° Southwest 414 476 32,000  Level Memphis Center
Thu 01:58:53 PM 36.5842 -87.2328 240° Southwest 414 476 32,000  Level Memphis Center
Thu 01:59:53 PM 36.5267 -87.3536 239° Southwest 414 476 32,000  Level Memphis Center
Thu 02:00:53 PM 36.4733 -87.4769 242° Southwest 407 468 32,000  Level Memphis Center
Thu 02:01:53 PM 36.4197 -87.5950 241° Southwest 407 468 32,000  Level Memphis Center
Thu 02:02:53 PM 36.3658 -87.7128 240° Southwest 407 468 32,000 -300 Level Memphis Center
Thu 02:03:53 PM 36.3119 -87.8278 240° Southwest 402 463 31,400 -800 Descending Memphis Center
Thu 02:04:53 PM 36.2581 -87.9478 241° Southwest 402 463 30,400 -1,000 Descending Memphis Center
Thu 02:05:53 PM 36.2042 -88.0653 240° Southwest 402 463 29,400 -850 Descending Memphis Center
Thu 02:06:53 PM 36.1458 -88.1928 240° Southwest 397 457 28,700 -600 Descending Memphis Center
Thu 02:07:53 PM 36.0875 -88.3175 240° Southwest 403 464 28,200 -1,250 Descending Memphis Center
Thu 02:08:53 PM 36.0269 -88.4397 239° Southwest 414 476 26,200 -1,650 Descending Memphis Center
Thu 02:09:53 PM 35.9744 -88.5617 242° Southwest 414 476 24,900 -1,000 Descending Memphis Center
Thu 02:10:53 PM 35.9242 -88.6781 242° Southwest 402 463 24,200 -600 Descending Memphis Center
Thu 02:11:53 PM 35.8672 -88.7894 238° Southwest 391 450 23,700 -500 Descending Memphis Center
Thu 02:12:53 PM 35.8122 -88.8978 238° Southwest 386 444 23,200 -550 Descending Memphis Center
Thu 02:13:53 PM 35.7611 -89.0036 239° Southwest 376 433 22,600 -1,200 Descending Memphis Center
Thu 02:14:53 PM 35.7081 -89.1094 238° Southwest 371 427 20,800 -1,950 Descending Memphis Center
Thu 02:15:53 PM 35.6400 -89.1922 225° Southwest 359 413 18,700 -2,050 Descending Memphis Center
Thu 02:16:53 PM 35.5761 -89.2747 226° Southwest 349 402 16,700 -2,200 Descending Memphis Center
Thu 02:17:53 PM 35.5206 -89.3469 227° Southwest 335 386 14,300 -2,350 Descending Memphis Center
Thu 02:18:53 PM 35.4692 -89.4342 234° Southwest 323 372 12,000 -1,850 Descending Memphis Center
Thu 02:19:53 PM 35.4322 -89.5186 242° Southwest 302 348 10,600 -1,300 Descending Memphis Center
Thu 02:20:53 PM 35.4075 -89.5853 246° West 245 282 9,400 -1,300 Descending Memphis Center
Thu 02:21:53 PM 35.3808 -89.6517 244° Southwest 226 260 8,000 -1,300 Descending Memphis Center
Thu 02:22:53 PM 35.3542 -89.7181 244° Southwest 218 251 6,800 -1,300 Descending Memphis Center
Thu 02:23:53 PM 35.3294 -89.7869 246° West 223 257 5,400 -1,350 Descending Memphis Center
Thu 02:24:53 PM 35.3067 -89.8508 246° West 218 251 4,100 -1,150 Descending Memphis Center
Thu 02:25:53 PM 35.2839 -89.9169 247° West 213 245 3,100 -1,050 Descending Memphis Center
Thu 02:26:53 PM 35.2467 -89.9606 224° Southwest 192 221 2,000 -550 Descending Memphis Center
Thu 02:27:53 PM 35.2008 -89.9783 198° South 180 207 2,000  Level Memphis Center
Thu 02:28:53 PM 35.1547 -89.9761 178° South 173 199 2,000 -250 Level Memphis Center
Thu 02:29:53 PM 35.1131 -89.9764 180° South 159 183 1,500 -550 Descending Memphis Center
Thu 02:30:53 PM 35.0819 -89.9764 180° South 133 153 900 -600 Descending Memphis Center
Thu 02:33:00 PM 35.0424 -89.9767 231° Southwest  Level Estimated

Login

Don't have an account? Register now (free) for customized features, flight alerts, and more!